Home   Weather   Township of Fairfield   Past weeks
Flag for USA

Past Weather in Township of Fairfield, Iowa, USA — Yesterday and Last 2 Weeks

Currently: 0 °F. Clear. (Weather station: Dubuque Regional Airport, USA). See more current weather

Past Weather in Township of Fairfield — Graph

°F

Township of Fairfield Temperature Yesterday

Maximum temperature yesterday: 31 °F (at 4:33 pm)
Minimum temperature yesterday: 11 °F (at 11:53 pm)
Average temperature yesterday: 22 °F

High & Low Weather Summary for the Past Weeks

 TemperatureHumidityPressure
High35 °F (Jan 13, 12:53 pm)100% (Jan 12, 9:53 am)30.46 "Hg (Jan 12, 9:53 am)
Low1 °F (Jan 20, 4:53 am)69% (Jan 8, 1:53 pm)29.28 "Hg (Jan 15, 4:34 am)
Average25 °F86%30.02 "Hg
* Reported Jan 5 5:29 am — Jan 20 5:55 am, Township of Fairfield. Weather by CustomWeather, © 2021

Note: Actual official high and low records may vary slightly from our data, if they occured in-between our weather recording intervals... More about our weather records

Township of Fairfield Weather History for the Previous 24 Hours

Scroll right to see more
 ConditionsComfort  
Time TempWeatherWind HumidityBarometerVisibility
5:55 am
Wed, Jan 20
1 °FClear.5 mph83%30.19 "Hg10 mi
4:53 am1 °FClear.7 mph87%30.26 "Hg10 mi
3:53 am3 °FClear.7 mph87%30.27 "Hg10 mi
2:53 am4 °FClear.5 mph84%30.30 "Hg10 mi
1:53 am7 °FClear.3 mph79%30.31 "Hg10 mi
12:53 am8 °FClear.8 mph76%30.31 "Hg10 mi
11:53 pm
Tue, Jan 19
11 °FClear.13 mph73%30.30 "Hg10 mi
11:18 pm12 °FPassing clouds.17 mph77%30.24 "Hg10 mi
10:53 pm14 °FPassing clouds.20 mph73%30.31 "Hg5 mi
9:53 pm15 °FOvercast.13 mph74%30.30 "Hg10 mi
8:53 pm16 °FClear.20 mph74%30.28 "Hg10 mi
8:17 pm19 °FPassing clouds.22 mph74%30.20 "Hg10 mi
7:40 pm20 °FPassing clouds.25 mph74%30.18 "Hg5 mi
6:53 pm23 °FOvercast.25 mph78%30.20 "Hg6 mi
5:53 pm30 °FIce fog.24 mph85%30.12 "Hg4 mi
5:34 pm30 °FIce fog.29 mph85%30.06 "Hg3 mi
4:53 pm31 °FMostly cloudy.17 mph85%30.09 "Hg8 mi
4:33 pm31 °FCloudy.15 mph82%30.05 "Hg9 mi
3:51 pm30 °FLight snow. Ice fog.18 mph85%30.05 "Hg3 mi
3:40 pm29 °FLight snow. Ice fog.17 mph89%30.05 "Hg1 mi
3:19 pm30 °FLight snow. Ice fog.17 mph85%30.05 "Hg1 mi
3:01 pm30 °FLight snow. Ice fog.14 mph85%30.06 "Hg1 mi
1:53 pm28 °FIce fog.13 mph89%30.11 "Hg3 mi
1:23 pm27 °FLight snow. Ice fog.14 mph89%30.07 "Hg2 mi
12:53 pm27 °FIce fog.15 mph89%30.13 "Hg4 mi
12:12 pm26 °FIce fog.17 mph92%30.09 "Hg3 mi
11:53 am26 °FIce fog.14 mph92%30.15 "Hg2 mi
11:29 am25 °FIce fog.12 mph92%30.12 "Hg2 mi
11:16 am24 °FIce fog.10 mph96%30.12 "Hg2 mi
11:05 am24 °FIce fog.9 mph91%30.13 "Hg2 mi
10:53 am24 °FIce fog.9 mph88%30.20 "Hg6 mi
10:13 am22 °FLow clouds.7 mph85%30.15 "Hg10 mi
9:53 am22 °FMore clouds than sun.7 mph85%30.20 "Hg10 mi
8:53 am20 °FMostly cloudy.7 mph85%30.19 "Hg10 mi
7:53 am19 °FMostly cloudy.8 mph85%30.19 "Hg10 mi
Weather by CustomWeather, © 2021

See weather overview